<?xml version="1.0" encoding="UTF-8"?>
<gpx version="1.1" creator="Endomondo.com" xsi:schemaLocation="http://www.topografix.com/GPX/1/1 http://www.topografix.com/GPX/1/1/gpx.xsd http://www.garmin.com/xmlschemas/GpxExtensions/v3 http://www.garmin.com/xmlschemas/GpxExtensionsv3.xsd http://www.garmin.com/xmlschemas/TrackPointExtension/v1 http://www.garmin.com/xmlschemas/TrackPointExtensionv1.xsd" xmlns="http://www.topografix.com/GPX/1/1" xmlns:gpxtpx="http://www.garmin.com/xmlschemas/TrackPointExtension/v1" xmlns:gpxx="http://www.garmin.com/xmlschemas/GpxExtensions/v3" xmlns:xsi="http://www.w3.org/2001/XMLSchema-instance">
  <metadata>
    <author>
      <name>jose manuel</name>
      <email id="jmanuelguerrero" domain="gmail.com"/>
    </author>
    <link href="http://www.endomondo.com">
      <text>Endomondo</text>
    </link>
    <time>2016-08-24T09:37:01Z</time>
  </metadata>
  <trk>
    <src>http://www.endomondo.com/</src>
    <link href="https://www.endomondo.com/workouts/692686329/159315">
      <text>endomondo</text>
    </link>
    <type>OTHER</type>
    <trkseg>
      <trkpt lat="42.8742558" lon="-5.374083">
        <time>2016-03-24T14:21:27Z</time>
      </trkpt>
      <trkpt lat="42.8742558" lon="-5.374083">
        <ele>1557.8</ele>
        <time>2016-03-24T14:21:28Z</time>
      </trkpt>
      <trkpt lat="42.8742626" lon="-5.3742085">
        <ele>1572.1</ele>
        <time>2016-03-24T14:31:23Z</time>
      </trkpt>
      <trkpt lat="42.8742454" lon="-5.3744364">
        <ele>1572.1</ele>
        <time>2016-03-24T14:31:47Z</time>
      </trkpt>
      <trkpt lat="42.8742261" lon="-5.374672">
        <ele>1572.1</ele>
        <time>2016-03-24T14:31:50Z</time>
      </trkpt>
      <trkpt lat="42.8742484" lon="-5.3748969">
        <ele>1572.1</ele>
        <time>2016-03-24T14:31:52Z</time>
      </trkpt>
      <trkpt lat="42.8742503" lon="-5.3751372">
        <ele>1572.1</ele>
        <time>2016-03-24T14:31:54Z</time>
      </trkpt>
      <trkpt lat="42.8742711" lon="-5.3753581">
        <ele>1572.0</ele>
        <time>2016-03-24T14:31:56Z</time>
      </trkpt>
      <trkpt lat="42.8742817" lon="-5.3755477">
        <ele>1572.0</ele>
        <time>2016-03-24T14:31:58Z</time>
      </trkpt>
      <trkpt lat="42.8742345" lon="-5.3757313">
        <ele>1571.9</ele>
        <time>2016-03-24T14:32:00Z</time>
      </trkpt>
      <trkpt lat="42.8742003" lon="-5.3759552">
        <ele>1571.9</ele>
        <time>2016-03-24T14:32:02Z</time>
      </trkpt>
      <trkpt lat="42.8742035" lon="-5.3761899">
        <ele>1571.8</ele>
        <time>2016-03-24T14:32:04Z</time>
      </trkpt>
      <trkpt lat="42.8742079" lon="-5.3764393">
        <ele>1571.8</ele>
        <time>2016-03-24T14:32:07Z</time>
      </trkpt>
      <trkpt lat="42.8742683" lon="-5.3766216">
        <ele>1571.7</ele>
        <time>2016-03-24T14:32:09Z</time>
      </trkpt>
      <trkpt lat="42.8743887" lon="-5.3767928">
        <ele>1571.4</ele>
        <time>2016-03-24T14:32:11Z</time>
      </trkpt>
      <trkpt lat="42.8745039" lon="-5.3769926">
        <ele>1571.0</ele>
        <time>2016-03-24T14:32:13Z</time>
      </trkpt>
      <trkpt lat="42.8745123" lon="-5.377214">
        <ele>1569.5</ele>
        <time>2016-03-24T14:32:15Z</time>
      </trkpt>
      <trkpt lat="42.8744852" lon="-5.3774197">
        <ele>1566.8</ele>
        <time>2016-03-24T14:32:17Z</time>
      </trkpt>
      <trkpt lat="42.8744544" lon="-5.3776046">
        <ele>1564.2</ele>
        <time>2016-03-24T14:32:19Z</time>
      </trkpt>
      <trkpt lat="42.8744768" lon="-5.3778085">
        <ele>1562.3</ele>
        <time>2016-03-24T14:32:21Z</time>
      </trkpt>
      <trkpt lat="42.8745737" lon="-5.3779874">
        <ele>1559.9</ele>
        <time>2016-03-24T14:32:24Z</time>
      </trkpt>
      <trkpt lat="42.8745151" lon="-5.3781923">
        <ele>1559.6</ele>
        <time>2016-03-24T14:32:28Z</time>
      </trkpt>
      <trkpt lat="42.8743792" lon="-5.378239">
        <ele>1558.8</ele>
        <time>2016-03-24T14:32:31Z</time>
      </trkpt>
      <trkpt lat="42.8742268" lon="-5.3783356">
        <ele>1558.7</ele>
        <time>2016-03-24T14:32:34Z</time>
      </trkpt>
      <trkpt lat="42.8741176" lon="-5.3784957">
        <ele>1558.6</ele>
        <time>2016-03-24T14:32:38Z</time>
      </trkpt>
      <trkpt lat="42.87402" lon="-5.3786736">
        <ele>1557.9</ele>
        <time>2016-03-24T14:32:41Z</time>
      </trkpt>
      <trkpt lat="42.8739337" lon="-5.3788632">
        <ele>1556.6</ele>
        <time>2016-03-24T14:32:44Z</time>
      </trkpt>
      <trkpt lat="42.8738275" lon="-5.3790553">
        <ele>1554.2</ele>
        <time>2016-03-24T14:32:47Z</time>
      </trkpt>
      <trkpt lat="42.8737205" lon="-5.3792481">
        <ele>1552.1</ele>
        <time>2016-03-24T14:32:50Z</time>
      </trkpt>
      <trkpt lat="42.8735943" lon="-5.3793963">
        <ele>1550.4</ele>
        <time>2016-03-24T14:32:53Z</time>
      </trkpt>
      <trkpt lat="42.8734904" lon="-5.3795679">
        <ele>1548.7</ele>
        <time>2016-03-24T14:32:56Z</time>
      </trkpt>
      <trkpt lat="42.8733593" lon="-5.3797454">
        <ele>1547.9</ele>
        <time>2016-03-24T14:32:59Z</time>
      </trkpt>
      <trkpt lat="42.8732244" lon="-5.3799062">
        <ele>1547.8</ele>
        <time>2016-03-24T14:33:02Z</time>
      </trkpt>
      <trkpt lat="42.8731196" lon="-5.3800431">
        <ele>1547.8</ele>
        <time>2016-03-24T14:33:04Z</time>
      </trkpt>
      <trkpt lat="42.872953" lon="-5.3801573">
        <ele>1547.8</ele>
        <time>2016-03-24T14:33:07Z</time>
      </trkpt>
      <trkpt lat="42.8727806" lon="-5.3801924">
        <ele>1547.8</ele>
        <time>2016-03-24T14:33:10Z</time>
      </trkpt>
      <trkpt lat="42.8726648" lon="-5.380371">
        <ele>1547.8</ele>
        <time>2016-03-24T14:33:14Z</time>
      </trkpt>
      <trkpt lat="42.8725554" lon="-5.3805223">
        <ele>1545.2</ele>
        <time>2016-03-24T14:33:17Z</time>
      </trkpt>
      <trkpt lat="42.8723904" lon="-5.3806017">
        <ele>1540.4</ele>
        <time>2016-03-24T14:33:20Z</time>
      </trkpt>
      <trkpt lat="42.8722406" lon="-5.3806617">
        <ele>1536.7</ele>
        <time>2016-03-24T14:33:23Z</time>
      </trkpt>
      <trkpt lat="42.8720661" lon="-5.3807285">
        <ele>1533.5</ele>
        <time>2016-03-24T14:33:26Z</time>
      </trkpt>
      <trkpt lat="42.8719217" lon="-5.3808234">
        <ele>1526.2</ele>
        <time>2016-03-24T14:33:29Z</time>
      </trkpt>
      <trkpt lat="42.8717519" lon="-5.3809228">
        <ele>1520.1</ele>
        <time>2016-03-24T14:33:32Z</time>
      </trkpt>
      <trkpt lat="42.8715976" lon="-5.3809766">
        <ele>1512.8</ele>
        <time>2016-03-24T14:33:35Z</time>
      </trkpt>
      <trkpt lat="42.8714125" lon="-5.3809609">
        <ele>1508.5</ele>
        <time>2016-03-24T14:33:38Z</time>
      </trkpt>
      <trkpt lat="42.8712706" lon="-5.3810341">
        <ele>1507.5</ele>
        <time>2016-03-24T14:33:40Z</time>
      </trkpt>
      <trkpt lat="42.8711411" lon="-5.3811056">
        <ele>1506.0</ele>
        <time>2016-03-24T14:33:42Z</time>
      </trkpt>
      <trkpt lat="42.8710038" lon="-5.3811912">
        <ele>1500.0</ele>
        <time>2016-03-24T14:33:45Z</time>
      </trkpt>
      <trkpt lat="42.8708415" lon="-5.3812842">
        <ele>1494.6</ele>
        <time>2016-03-24T14:33:48Z</time>
      </trkpt>
      <trkpt lat="42.8706642" lon="-5.3812662">
        <ele>1489.9</ele>
        <time>2016-03-24T14:33:51Z</time>
      </trkpt>
      <trkpt lat="42.8705408" lon="-5.3813437">
        <ele>1486.0</ele>
        <time>2016-03-24T14:33:53Z</time>
      </trkpt>
      <trkpt lat="42.8703731" lon="-5.3814306">
        <ele>1482.3</ele>
        <time>2016-03-24T14:33:56Z</time>
      </trkpt>
      <trkpt lat="42.8702088" lon="-5.3814062">
        <ele>1480.7</ele>
        <time>2016-03-24T14:33:59Z</time>
      </trkpt>
      <trkpt lat="42.87006" lon="-5.381387">
        <ele>1480.1</ele>
        <time>2016-03-24T14:34:01Z</time>
      </trkpt>
      <trkpt lat="42.8699091" lon="-5.3813935">
        <ele>1479.8</ele>
        <time>2016-03-24T14:34:03Z</time>
      </trkpt>
      <trkpt lat="42.8697261" lon="-5.3813927">
        <ele>1478.0</ele>
        <time>2016-03-24T14:34:06Z</time>
      </trkpt>
      <trkpt lat="42.8695244" lon="-5.3814304">
        <ele>1471.9</ele>
        <time>2016-03-24T14:34:09Z</time>
      </trkpt>
      <trkpt lat="42.8693906" lon="-5.381519">
        <ele>1469.1</ele>
        <time>2016-03-24T14:34:11Z</time>
      </trkpt>
      <trkpt lat="42.869221" lon="-5.3815999">
        <ele>1467.6</ele>
        <time>2016-03-24T14:34:14Z</time>
      </trkpt>
      <trkpt lat="42.8690388" lon="-5.381586">
        <ele>1464.7</ele>
        <time>2016-03-24T14:34:17Z</time>
      </trkpt>
      <trkpt lat="42.8688927" lon="-5.3814932">
        <ele>1461.2</ele>
        <time>2016-03-24T14:34:19Z</time>
      </trkpt>
      <trkpt lat="42.8687632" lon="-5.3814013">
        <ele>1458.3</ele>
        <time>2016-03-24T14:34:21Z</time>
      </trkpt>
      <trkpt lat="42.8686146" lon="-5.3813662">
        <ele>1454.9</ele>
        <time>2016-03-24T14:34:23Z</time>
      </trkpt>
      <trkpt lat="42.8684744" lon="-5.3812873">
        <ele>1451.0</ele>
        <time>2016-03-24T14:34:25Z</time>
      </trkpt>
      <trkpt lat="42.868336" lon="-5.3812265">
        <ele>1448.3</ele>
        <time>2016-03-24T14:34:27Z</time>
      </trkpt>
      <trkpt lat="42.8681996" lon="-5.381151">
        <ele>1443.9</ele>
        <time>2016-03-24T14:34:29Z</time>
      </trkpt>
      <trkpt lat="42.8680677" lon="-5.3810541">
        <ele>1435.6</ele>
        <time>2016-03-24T14:34:31Z</time>
      </trkpt>
      <trkpt lat="42.8679212" lon="-5.3809628">
        <ele>1428.7</ele>
        <time>2016-03-24T14:34:33Z</time>
      </trkpt>
      <trkpt lat="42.8677763" lon="-5.3808772">
        <ele>1424.1</ele>
        <time>2016-03-24T14:34:35Z</time>
      </trkpt>
      <trkpt lat="42.867635" lon="-5.3807947">
        <ele>1419.6</ele>
        <time>2016-03-24T14:34:37Z</time>
      </trkpt>
      <trkpt lat="42.8674937" lon="-5.3806999">
        <ele>1416.3</ele>
        <time>2016-03-24T14:34:39Z</time>
      </trkpt>
      <trkpt lat="42.8673316" lon="-5.3805608">
        <ele>1414.2</ele>
        <time>2016-03-24T14:34:42Z</time>
      </trkpt>
      <trkpt lat="42.8672064" lon="-5.3803923">
        <ele>1412.9</ele>
        <time>2016-03-24T14:34:45Z</time>
      </trkpt>
      <trkpt lat="42.8671313" lon="-5.3801539">
        <ele>1412.7</ele>
        <time>2016-03-24T14:34:48Z</time>
      </trkpt>
      <trkpt lat="42.8670956" lon="-5.3799058">
        <ele>1412.6</ele>
        <time>2016-03-24T14:34:50Z</time>
      </trkpt>
      <trkpt lat="42.8670549" lon="-5.3796969">
        <ele>1412.6</ele>
        <time>2016-03-24T14:34:52Z</time>
      </trkpt>
      <trkpt lat="42.8669893" lon="-5.3794788">
        <ele>1412.6</ele>
        <time>2016-03-24T14:34:54Z</time>
      </trkpt>
      <trkpt lat="42.8669126" lon="-5.379257">
        <ele>1412.6</ele>
        <time>2016-03-24T14:34:56Z</time>
      </trkpt>
      <trkpt lat="42.8668011" lon="-5.3790598">
        <ele>1412.6</ele>
        <time>2016-03-24T14:34:58Z</time>
      </trkpt>
      <trkpt lat="42.8667067" lon="-5.3788609">
        <ele>1412.6</ele>
        <time>2016-03-24T14:35:00Z</time>
      </trkpt>
      <trkpt lat="42.866624" lon="-5.3786453">
        <ele>1412.6</ele>
        <time>2016-03-24T14:35:02Z</time>
      </trkpt>
      <trkpt lat="42.8665437" lon="-5.3783937">
        <ele>1412.6</ele>
        <time>2016-03-24T14:35:04Z</time>
      </trkpt>
      <trkpt lat="42.8664408" lon="-5.3782191">
        <ele>1412.6</ele>
        <time>2016-03-24T14:35:06Z</time>
      </trkpt>
      <trkpt lat="42.8663055" lon="-5.378112">
        <ele>1412.6</ele>
        <time>2016-03-24T14:35:08Z</time>
      </trkpt>
      <trkpt lat="42.8661205" lon="-5.3780965">
        <ele>1412.8</ele>
        <time>2016-03-24T14:35:11Z</time>
      </trkpt>
      <trkpt lat="42.8659309" lon="-5.3779779">
        <ele>1413.0</ele>
        <time>2016-03-24T14:35:14Z</time>
      </trkpt>
      <trkpt lat="42.8658031" lon="-5.3777984">
        <ele>1412.8</ele>
        <time>2016-03-24T14:35:16Z</time>
      </trkpt>
      <trkpt lat="42.8657247" lon="-5.3776486">
        <ele>1412.7</ele>
        <time>2016-03-24T14:35:18Z</time>
      </trkpt>
      <trkpt lat="42.8656485" lon="-5.3774349">
        <ele>1412.8</ele>
        <time>2016-03-24T14:35:20Z</time>
      </trkpt>
      <trkpt lat="42.8656552" lon="-5.3772103">
        <ele>1413.0</ele>
        <time>2016-03-24T14:35:22Z</time>
      </trkpt>
      <trkpt lat="42.8656877" lon="-5.3769766">
        <ele>1413.2</ele>
        <time>2016-03-24T14:35:24Z</time>
      </trkpt>
      <trkpt lat="42.8657222" lon="-5.3767146">
        <ele>1413.5</ele>
        <time>2016-03-24T14:35:26Z</time>
      </trkpt>
      <trkpt lat="42.8657813" lon="-5.37644">
        <ele>1413.7</ele>
        <time>2016-03-24T14:35:28Z</time>
      </trkpt>
      <trkpt lat="42.8658356" lon="-5.3761549">
        <ele>1413.8</ele>
        <time>2016-03-24T14:35:30Z</time>
      </trkpt>
      <trkpt lat="42.8658281" lon="-5.3758981">
        <ele>1413.9</ele>
        <time>2016-03-24T14:35:32Z</time>
      </trkpt>
      <trkpt lat="42.8657856" lon="-5.3755935">
        <ele>1414.2</ele>
        <time>2016-03-24T14:35:34Z</time>
      </trkpt>
      <trkpt lat="42.8657609" lon="-5.3753036">
        <ele>1414.6</ele>
        <time>2016-03-24T14:35:36Z</time>
      </trkpt>
      <trkpt lat="42.8656888" lon="-5.3750201">
        <ele>1415.1</ele>
        <time>2016-03-24T14:35:38Z</time>
      </trkpt>
      <trkpt lat="42.8656416" lon="-5.3747467">
        <ele>1415.7</ele>
        <time>2016-03-24T14:35:40Z</time>
      </trkpt>
      <trkpt lat="42.865562" lon="-5.3744664">
        <ele>1416.4</ele>
        <time>2016-03-24T14:35:42Z</time>
      </trkpt>
      <trkpt lat="42.8654451" lon="-5.3742453">
        <ele>1417.6</ele>
        <time>2016-03-24T14:35:44Z</time>
      </trkpt>
      <trkpt lat="42.8653479" lon="-5.3740302">
        <ele>1418.6</ele>
        <time>2016-03-24T14:35:46Z</time>
      </trkpt>
      <trkpt lat="42.8652902" lon="-5.3737686">
        <ele>1419.0</ele>
        <time>2016-03-24T14:35:48Z</time>
      </trkpt>
      <trkpt lat="42.8652523" lon="-5.3734991">
        <ele>1419.3</ele>
        <time>2016-03-24T14:35:50Z</time>
      </trkpt>
      <trkpt lat="42.8651952" lon="-5.3732317">
        <ele>1419.5</ele>
        <time>2016-03-24T14:35:52Z</time>
      </trkpt>
      <trkpt lat="42.8651325" lon="-5.3729607">
        <ele>1419.9</ele>
        <time>2016-03-24T14:35:54Z</time>
      </trkpt>
      <trkpt lat="42.8650779" lon="-5.3726414">
        <ele>1420.1</ele>
        <time>2016-03-24T14:35:56Z</time>
      </trkpt>
      <trkpt lat="42.8650266" lon="-5.3724143">
        <ele>1420.2</ele>
        <time>2016-03-24T14:35:58Z</time>
      </trkpt>
      <trkpt lat="42.864928" lon="-5.372244">
        <ele>1420.4</ele>
        <time>2016-03-24T14:36:00Z</time>
      </trkpt>
      <trkpt lat="42.864777" lon="-5.3721353">
        <ele>1420.6</ele>
        <time>2016-03-24T14:36:03Z</time>
      </trkpt>
      <trkpt lat="42.8646342" lon="-5.3720407">
        <ele>1420.8</ele>
        <time>2016-03-24T14:36:06Z</time>
      </trkpt>
      <trkpt lat="42.8644762" lon="-5.3719151">
        <ele>1421.0</ele>
        <time>2016-03-24T14:36:09Z</time>
      </trkpt>
      <trkpt lat="42.8643163" lon="-5.3718056">
        <ele>1421.5</ele>
        <time>2016-03-24T14:36:12Z</time>
      </trkpt>
      <trkpt lat="42.8641543" lon="-5.3716952">
        <ele>1421.8</ele>
        <time>2016-03-24T14:36:15Z</time>
      </trkpt>
      <trkpt lat="42.8640246" lon="-5.3716333">
        <ele>1421.9</ele>
        <time>2016-03-24T14:36:17Z</time>
      </trkpt>
      <trkpt lat="42.8638734" lon="-5.3715121">
        <ele>1422.3</ele>
        <time>2016-03-24T14:36:20Z</time>
      </trkpt>
      <trkpt lat="42.8637579" lon="-5.3713604">
        <ele>1422.9</ele>
        <time>2016-03-24T14:36:22Z</time>
      </trkpt>
      <trkpt lat="42.8636613" lon="-5.3712026">
        <ele>1423.5</ele>
        <time>2016-03-24T14:36:24Z</time>
      </trkpt>
      <trkpt lat="42.8635627" lon="-5.3710361">
        <ele>1423.5</ele>
        <time>2016-03-24T14:36:26Z</time>
      </trkpt>
      <trkpt lat="42.8634219" lon="-5.3708887">
        <ele>1422.9</ele>
        <time>2016-03-24T14:36:28Z</time>
      </trkpt>
      <trkpt lat="42.8632703" lon="-5.3706884">
        <ele>1422.4</ele>
        <time>2016-03-24T14:36:30Z</time>
      </trkpt>
      <trkpt lat="42.8632032" lon="-5.3704641">
        <ele>1422.1</ele>
        <time>2016-03-24T14:36:32Z</time>
      </trkpt>
      <trkpt lat="42.8631978" lon="-5.3702122">
        <ele>1421.9</ele>
        <time>2016-03-24T14:36:34Z</time>
      </trkpt>
      <trkpt lat="42.8631652" lon="-5.3699772">
        <ele>1421.7</ele>
        <time>2016-03-24T14:36:36Z</time>
      </trkpt>
      <trkpt lat="42.8630789" lon="-5.3697388">
        <ele>1421.6</ele>
        <time>2016-03-24T14:36:38Z</time>
      </trkpt>
      <trkpt lat="42.8630097" lon="-5.3695024">
        <ele>1421.6</ele>
        <time>2016-03-24T14:36:40Z</time>
      </trkpt>
      <trkpt lat="42.8629443" lon="-5.3692655">
        <ele>1421.6</ele>
        <time>2016-03-24T14:36:42Z</time>
      </trkpt>
      <trkpt lat="42.8628792" lon="-5.3690606">
        <ele>1421.6</ele>
        <time>2016-03-24T14:36:44Z</time>
      </trkpt>
      <trkpt lat="42.862793" lon="-5.3688664">
        <ele>1421.6</ele>
        <time>2016-03-24T14:36:46Z</time>
      </trkpt>
      <trkpt lat="42.8626862" lon="-5.3686816">
        <ele>1421.6</ele>
        <time>2016-03-24T14:36:48Z</time>
      </trkpt>
      <trkpt lat="42.8625744" lon="-5.3685541">
        <ele>1421.6</ele>
        <time>2016-03-24T14:36:50Z</time>
      </trkpt>
      <trkpt lat="42.8624415" lon="-5.3684624">
        <ele>1421.6</ele>
        <time>2016-03-24T14:36:52Z</time>
      </trkpt>
      <trkpt lat="42.8622506" lon="-5.3684333">
        <ele>1421.6</ele>
        <time>2016-03-24T14:36:55Z</time>
      </trkpt>
      <trkpt lat="42.8621285" lon="-5.3685544">
        <ele>1419.6</ele>
        <time>2016-03-24T14:36:59Z</time>
      </trkpt>
      <trkpt lat="42.8621526" lon="-5.3687538">
        <ele>1417.5</ele>
        <time>2016-03-24T14:37:03Z</time>
      </trkpt>
      <trkpt lat="42.8621917" lon="-5.368991">
        <ele>1410.9</ele>
        <time>2016-03-24T14:37:07Z</time>
      </trkpt>
      <trkpt lat="42.8623045" lon="-5.3692232">
        <ele>1404.4</ele>
        <time>2016-03-24T14:37:10Z</time>
      </trkpt>
      <trkpt lat="42.862423" lon="-5.3693951">
        <ele>1399.9</ele>
        <time>2016-03-24T14:37:12Z</time>
      </trkpt>
      <trkpt lat="42.8625685" lon="-5.3695657">
        <ele>1394.0</ele>
        <time>2016-03-24T14:37:15Z</time>
      </trkpt>
      <trkpt lat="42.8627348" lon="-5.3697385">
        <ele>1388.8</ele>
        <time>2016-03-24T14:37:18Z</time>
      </trkpt>
      <trkpt lat="42.8628698" lon="-5.3698767">
        <ele>1384.7</ele>
        <time>2016-03-24T14:37:20Z</time>
      </trkpt>
      <trkpt lat="42.8630673" lon="-5.3699259">
        <ele>1379.5</ele>
        <time>2016-03-24T14:37:22Z</time>
      </trkpt>
      <trkpt lat="42.8632904" lon="-5.3699031">
        <ele>1374.2</ele>
        <time>2016-03-24T14:37:24Z</time>
      </trkpt>
      <trkpt lat="42.8635044" lon="-5.3698111">
        <ele>1371.8</ele>
        <time>2016-03-24T14:37:26Z</time>
      </trkpt>
      <trkpt lat="42.8636918" lon="-5.369611">
        <ele>1370.9</ele>
        <time>2016-03-24T14:37:28Z</time>
      </trkpt>
      <trkpt lat="42.8638152" lon="-5.3693598">
        <ele>1369.7</ele>
        <time>2016-03-24T14:37:31Z</time>
      </trkpt>
      <trkpt lat="42.8638826" lon="-5.3690946">
        <ele>1366.9</ele>
        <time>2016-03-24T14:37:33Z</time>
      </trkpt>
      <trkpt lat="42.8639069" lon="-5.3688125">
        <ele>1363.5</ele>
        <time>2016-03-24T14:37:35Z</time>
      </trkpt>
      <trkpt lat="42.8639066" lon="-5.3685693">
        <ele>1359.4</ele>
        <time>2016-03-24T14:37:37Z</time>
      </trkpt>
      <trkpt lat="42.8639137" lon="-5.368319">
        <ele>1354.6</ele>
        <time>2016-03-24T14:37:39Z</time>
      </trkpt>
      <trkpt lat="42.8639111" lon="-5.3680399">
        <ele>1349.6</ele>
        <time>2016-03-24T14:37:41Z</time>
      </trkpt>
      <trkpt lat="42.8639111" lon="-5.3677553">
        <ele>1345.3</ele>
        <time>2016-03-24T14:37:43Z</time>
      </trkpt>
      <trkpt lat="42.8639423" lon="-5.3674954">
        <ele>1342.2</ele>
        <time>2016-03-24T14:37:45Z</time>
      </trkpt>
      <trkpt lat="42.863991" lon="-5.3672088">
        <ele>1341.3</ele>
        <time>2016-03-24T14:37:47Z</time>
      </trkpt>
      <trkpt lat="42.8640158" lon="-5.3669163">
        <ele>1338.6</ele>
        <time>2016-03-24T14:37:49Z</time>
      </trkpt>
      <trkpt lat="42.8640334" lon="-5.3666073">
        <ele>1334.1</ele>
        <time>2016-03-24T14:37:51Z</time>
      </trkpt>
      <trkpt lat="42.8640288" lon="-5.3662901">
        <ele>1332.0</ele>
        <time>2016-03-24T14:37:53Z</time>
      </trkpt>
      <trkpt lat="42.8640242" lon="-5.3659705">
        <ele>1328.7</ele>
        <time>2016-03-24T14:37:55Z</time>
      </trkpt>
      <trkpt lat="42.8640139" lon="-5.3656656">
        <ele>1324.3</ele>
        <time>2016-03-24T14:37:57Z</time>
      </trkpt>
      <trkpt lat="42.8639732" lon="-5.3653689">
        <ele>1321.4</ele>
        <time>2016-03-24T14:37:59Z</time>
      </trkpt>
      <trkpt lat="42.8639141" lon="-5.3650756">
        <ele>1318.6</ele>
        <time>2016-03-24T14:38:01Z</time>
      </trkpt>
      <trkpt lat="42.8638133" lon="-5.3648179">
        <ele>1314.8</ele>
        <time>2016-03-24T14:38:03Z</time>
      </trkpt>
      <trkpt lat="42.8637219" lon="-5.364605">
        <ele>1311.5</ele>
        <time>2016-03-24T14:38:05Z</time>
      </trkpt>
      <trkpt lat="42.8636091" lon="-5.36436">
        <ele>1309.9</ele>
        <time>2016-03-24T14:38:07Z</time>
      </trkpt>
      <trkpt lat="42.8634904" lon="-5.3641294">
        <ele>1309.0</ele>
        <time>2016-03-24T14:38:09Z</time>
      </trkpt>
      <trkpt lat="42.8633963" lon="-5.3639401">
        <ele>1307.3</ele>
        <time>2016-03-24T14:38:11Z</time>
      </trkpt>
      <trkpt lat="42.8632942" lon="-5.3637351">
        <ele>1304.6</ele>
        <time>2016-03-24T14:38:13Z</time>
      </trkpt>
      <trkpt lat="42.8631687" lon="-5.3635528">
        <ele>1302.5</ele>
        <time>2016-03-24T14:38:15Z</time>
      </trkpt>
      <trkpt lat="42.863056" lon="-5.3633751">
        <ele>1299.6</ele>
        <time>2016-03-24T14:38:17Z</time>
      </trkpt>
      <trkpt lat="42.8629245" lon="-5.3631066">
        <ele>1296.4</ele>
        <time>2016-03-24T14:38:19Z</time>
      </trkpt>
      <trkpt lat="42.8628269" lon="-5.3628527">
        <ele>1290.7</ele>
        <time>2016-03-24T14:38:21Z</time>
      </trkpt>
      <trkpt lat="42.8627688" lon="-5.3626117">
        <ele>1286.3</ele>
        <time>2016-03-24T14:38:23Z</time>
      </trkpt>
      <trkpt lat="42.8627136" lon="-5.3623824">
        <ele>1281.5</ele>
        <time>2016-03-24T14:38:25Z</time>
      </trkpt>
      <trkpt lat="42.862665" lon="-5.3620912">
        <ele>1276.6</ele>
        <time>2016-03-24T14:38:27Z</time>
      </trkpt>
      <trkpt lat="42.8625977" lon="-5.3618232">
        <ele>1271.8</ele>
        <time>2016-03-24T14:38:29Z</time>
      </trkpt>
      <trkpt lat="42.8624782" lon="-5.3616492">
        <ele>1266.4</ele>
        <time>2016-03-24T14:38:31Z</time>
      </trkpt>
      <trkpt lat="42.8623443" lon="-5.3615246">
        <ele>1261.3</ele>
        <time>2016-03-24T14:38:33Z</time>
      </trkpt>
      <trkpt lat="42.8622136" lon="-5.361401">
        <ele>1257.3</ele>
        <time>2016-03-24T14:38:35Z</time>
      </trkpt>
      <trkpt lat="42.8620435" lon="-5.3613121">
        <ele>1250.0</ele>
        <time>2016-03-24T14:38:38Z</time>
      </trkpt>
      <trkpt lat="42.8618906" lon="-5.3613509">
        <ele>1244.1</ele>
        <time>2016-03-24T14:38:41Z</time>
      </trkpt>
      <trkpt lat="42.8618296" lon="-5.3615698">
        <ele>1236.2</ele>
        <time>2016-03-24T14:38:45Z</time>
      </trkpt>
      <trkpt lat="42.861639" lon="-5.3614909">
        <ele>1234.9</ele>
        <time>2016-03-24T14:38:48Z</time>
      </trkpt>
      <trkpt lat="42.8615321" lon="-5.3612677">
        <ele>1234.4</ele>
        <time>2016-03-24T14:38:50Z</time>
      </trkpt>
      <trkpt lat="42.8614832" lon="-5.3609574">
        <ele>1234.0</ele>
        <time>2016-03-24T14:38:52Z</time>
      </trkpt>
      <trkpt lat="42.8615323" lon="-5.3606032">
        <ele>1233.7</ele>
        <time>2016-03-24T14:38:54Z</time>
      </trkpt>
      <trkpt lat="42.8616189" lon="-5.3603163">
        <ele>1233.1</ele>
        <time>2016-03-24T14:38:56Z</time>
      </trkpt>
      <trkpt lat="42.8617168" lon="-5.3601068">
        <ele>1232.0</ele>
        <time>2016-03-24T14:38:58Z</time>
      </trkpt>
      <trkpt lat="42.8618622" lon="-5.3598753">
        <ele>1230.9</ele>
        <time>2016-03-24T14:39:00Z</time>
      </trkpt>
      <trkpt lat="42.8620053" lon="-5.3595817">
        <ele>1229.7</ele>
        <time>2016-03-24T14:39:02Z</time>
      </trkpt>
      <trkpt lat="42.8620568" lon="-5.3594061">
        <ele>1229.3</ele>
        <time>2016-03-24T14:39:03Z</time>
      </trkpt>
      <trkpt lat="42.8621052" lon="-5.3592347">
        <ele>1228.8</ele>
        <time>2016-03-24T14:39:04Z</time>
      </trkpt>
      <trkpt lat="42.8621228" lon="-5.3588979">
        <ele>1228.4</ele>
        <time>2016-03-24T14:39:06Z</time>
      </trkpt>
      <trkpt lat="42.8620785" lon="-5.358627">
        <ele>1226.9</ele>
        <time>2016-03-24T14:39:08Z</time>
      </trkpt>
      <trkpt lat="42.8619722" lon="-5.3583929">
        <ele>1226.1</ele>
        <time>2016-03-24T14:39:10Z</time>
      </trkpt>
      <trkpt lat="42.8618363" lon="-5.3581911">
        <ele>1220.5</ele>
        <time>2016-03-24T14:39:12Z</time>
      </trkpt>
      <trkpt lat="42.8616867" lon="-5.3580318">
        <ele>1215.7</ele>
        <time>2016-03-24T14:39:14Z</time>
      </trkpt>
      <trkpt lat="42.8615969" lon="-5.3582055">
        <ele>1209.1</ele>
        <time>2016-03-24T14:39:19Z</time>
      </trkpt>
      <trkpt lat="42.8615823" lon="-5.3584069">
        <ele>1201.4</ele>
        <time>2016-03-24T14:39:23Z</time>
      </trkpt>
      <trkpt lat="42.8615296" lon="-5.3586352">
        <ele>1196.1</ele>
        <time>2016-03-24T14:39:27Z</time>
      </trkpt>
      <trkpt lat="42.8614367" lon="-5.3587748">
        <ele>1193.6</ele>
        <time>2016-03-24T14:39:29Z</time>
      </trkpt>
      <trkpt lat="42.8612974" lon="-5.3588903">
        <ele>1183.8</ele>
        <time>2016-03-24T14:39:32Z</time>
      </trkpt>
      <trkpt lat="42.8611599" lon="-5.3589326">
        <ele>1180.7</ele>
        <time>2016-03-24T14:39:35Z</time>
      </trkpt>
      <trkpt lat="42.8610262" lon="-5.3590112">
        <ele>1179.9</ele>
        <time>2016-03-24T14:39:38Z</time>
      </trkpt>
      <trkpt lat="42.8608812" lon="-5.3591331">
        <ele>1179.1</ele>
        <time>2016-03-24T14:39:41Z</time>
      </trkpt>
      <trkpt lat="42.8607334" lon="-5.3591694">
        <ele>1177.8</ele>
        <time>2016-03-24T14:39:44Z</time>
      </trkpt>
      <trkpt lat="42.8605748" lon="-5.3592411">
        <ele>1175.0</ele>
        <time>2016-03-24T14:39:47Z</time>
      </trkpt>
      <trkpt lat="42.8604237" lon="-5.3593303">
        <ele>1162.9</ele>
        <time>2016-03-24T14:39:53Z</time>
      </trkpt>
      <trkpt lat="42.8603" lon="-5.3594613">
        <ele>1150.1</ele>
        <time>2016-03-24T14:39:58Z</time>
      </trkpt>
      <trkpt lat="42.8601696" lon="-5.359532">
        <ele>1140.2</ele>
        <time>2016-03-24T14:40:01Z</time>
      </trkpt>
      <trkpt lat="42.860033" lon="-5.3595968">
        <ele>1136.7</ele>
        <time>2016-03-24T14:40:04Z</time>
      </trkpt>
      <trkpt lat="42.8599096" lon="-5.3597015">
        <ele>1131.2</ele>
        <time>2016-03-24T14:40:07Z</time>
      </trkpt>
      <trkpt lat="42.8597227" lon="-5.3596774">
        <ele>1123.7</ele>
        <time>2016-03-24T14:40:10Z</time>
      </trkpt>
      <trkpt lat="42.8595457" lon="-5.3596092">
        <ele>1121.1</ele>
        <time>2016-03-24T14:40:12Z</time>
      </trkpt>
      <trkpt lat="42.8593474" lon="-5.3595231">
        <ele>1118.6</ele>
        <time>2016-03-24T14:40:14Z</time>
      </trkpt>
      <trkpt lat="42.8592141" lon="-5.359328">
        <ele>1116.0</ele>
        <time>2016-03-24T14:40:16Z</time>
      </trkpt>
      <trkpt lat="42.8590865" lon="-5.3591073">
        <ele>1114.4</ele>
        <time>2016-03-24T14:40:18Z</time>
      </trkpt>
      <trkpt lat="42.8589545" lon="-5.3589192">
        <ele>1113.2</ele>
        <time>2016-03-24T14:40:20Z</time>
      </trkpt>
      <trkpt lat="42.8588739" lon="-5.3586819">
        <ele>1112.6</ele>
        <time>2016-03-24T14:40:22Z</time>
      </trkpt>
      <trkpt lat="42.8588137" lon="-5.3584728">
        <ele>1109.1</ele>
        <time>2016-03-24T14:40:24Z</time>
      </trkpt>
      <trkpt lat="42.8587223" lon="-5.35833">
        <ele>1105.0</ele>
        <time>2016-03-24T14:40:28Z</time>
      </trkpt>
      <trkpt lat="42.8587723" lon="-5.358437">
        <ele>1050.5</ele>
        <time>2016-03-24T14:41:26Z</time>
      </trkpt>
      <trkpt lat="42.8586938" lon="-5.3582813">
        <ele>1047.9</ele>
        <time>2016-03-24T14:41:53Z</time>
      </trkpt>
      <trkpt lat="42.8585809" lon="-5.3581643">
        <ele>1046.8</ele>
        <time>2016-03-24T14:42:04Z</time>
      </trkpt>
      <trkpt lat="42.8584587" lon="-5.3580802">
        <ele>1046.0</ele>
        <time>2016-03-24T14:42:16Z</time>
      </trkpt>
      <trkpt lat="42.8583793" lon="-5.3580145">
        <ele>1044.6</ele>
        <time>2016-03-24T14:42:46Z</time>
      </trkpt>
      <trkpt lat="42.858264" lon="-5.3579125">
        <ele>1044.4</ele>
        <time>2016-03-24T14:42:58Z</time>
      </trkpt>
      <trkpt lat="42.8581526" lon="-5.3577907">
        <ele>1044.1</ele>
        <time>2016-03-24T14:43:12Z</time>
      </trkpt>
      <trkpt lat="42.8581614" lon="-5.3576653">
        <ele>1044.0</ele>
        <time>2016-03-24T14:44:25Z</time>
      </trkpt>
      <trkpt lat="42.8581224" lon="-5.3577455">
        <ele>1043.9</ele>
        <time>2016-03-24T14:45:30Z</time>
      </trkpt>
      <trkpt lat="42.8581224" lon="-5.3577455">
        <time>2016-03-24T14:45:30Z</time>
      </trkpt>
    </trkseg>
    <trkseg>
      <trkpt lat="42.8581224" lon="-5.3577455">
        <time>2016-03-24T14:45:31Z</time>
      </trkpt>
    </trkseg>
  </trk>
</gpx>